createdAt,value
2022-12-11T00:00:42.306Z,-0.44
2022-12-11T00:03:29.783Z,-0.41
2022-12-11T00:05:57.417Z,-0.41
2022-12-11T00:08:24.943Z,-0.41
2022-12-11T00:10:52.512Z,-0.41
2022-12-11T00:13:20.026Z,-0.44
2022-12-11T00:15:47.507Z,-0.48
2022-12-11T00:18:15.080Z,-0.52
2022-12-11T00:20:42.946Z,-0.55
2022-12-11T00:23:12.013Z,-0.57
2022-12-11T00:25:47.253Z,-0.60
2022-12-11T00:28:18.834Z,-0.64
2022-12-11T00:30:47.182Z,-0.67
2022-12-11T00:33:15.216Z,-0.68
2022-12-11T00:35:45.727Z,-0.67
2022-12-11T00:38:20.525Z,-0.63
2022-12-11T00:40:49.109Z,-0.59
2022-12-11T00:43:17.146Z,-0.57
2022-12-11T00:45:47.068Z,-0.56
2022-12-11T00:48:14.884Z,-0.54
2022-12-11T00:50:42.763Z,-0.55
2022-12-11T00:53:10.307Z,-0.57
2022-12-11T00:55:40.644Z,-0.59
2022-12-11T00:58:09.214Z,-0.61
2022-12-11T01:00:37.638Z,-0.65
2022-12-11T01:03:06.328Z,-0.71
2022-12-11T01:05:34.050Z,-0.75
2022-12-11T01:08:02.280Z,-0.79
2022-12-11T01:10:29.965Z,-0.82
2022-12-11T01:13:00.964Z,-0.85
2022-12-11T01:15:31.425Z,-0.85
2022-12-11T01:17:59.313Z,-0.85
2022-12-11T01:20:28.019Z,-0.84
2022-12-11T01:22:57.761Z,-0.84
2022-12-11T01:25:26.808Z,-0.84
2022-12-11T01:27:55.799Z,-0.84
2022-12-11T01:30:25.606Z,-0.85
2022-12-11T01:32:53.215Z,-0.86
2022-12-11T01:35:21.012Z,-0.88
2022-12-11T01:37:49.365Z,-0.92
2022-12-11T01:40:18.987Z,-0.96
2022-12-11T01:42:46.665Z,-0.99
2022-12-11T01:45:32.261Z,-1.00
2022-12-11T01:48:02.224Z,-1.02
2022-12-11T01:50:32.368Z,-1.05
2022-12-11T01:53:00.217Z,-1.08
2022-12-11T01:55:28.159Z,-1.12
2022-12-11T01:57:55.793Z,-1.16
2022-12-11T02:00:23.386Z,-1.20
2022-12-11T02:02:50.966Z,-1.21
2022-12-11T02:05:18.548Z,-1.23
2022-12-11T02:07:54.275Z,-1.24
2022-12-11T02:10:28.223Z,-1.25
2022-12-11T02:13:05.050Z,-1.25
2022-12-11T02:16:05.700Z,-1.25
2022-12-11T02:18:52.661Z,-1.25
2022-12-11T02:21:28.389Z,-1.23
2022-12-11T02:24:05.766Z,-1.21
2022-12-11T02:26:52.016Z,-1.21
2022-12-11T02:29:26.117Z,-1.24
2022-12-11T02:32:02.456Z,-1.30
2022-12-11T02:34:37.503Z,-1.35
2022-12-11T02:37:10.606Z,-1.40
2022-12-11T02:39:41.521Z,-1.42
2022-12-11T02:42:11.323Z,-1.46
2022-12-11T02:44:40.862Z,-1.47
2022-12-11T02:47:12.800Z,-1.47
2022-12-11T02:49:44.355Z,-1.46
2022-12-11T02:52:14.670Z,-1.44
2022-12-11T02:54:44.720Z,-1.41
2022-12-11T02:57:17.060Z,-1.39
2022-12-11T02:59:46.410Z,-1.37
2022-12-11T03:02:17.057Z,-1.35
2022-12-11T03:04:47.549Z,-1.36
2022-12-11T03:07:23.287Z,-1.37
2022-12-11T03:09:51.939Z,-1.38
2022-12-11T03:12:25.949Z,-1.39
2022-12-11T03:14:53.896Z,-1.42
2022-12-11T03:17:25.378Z,-1.48
2022-12-11T03:20:15.956Z,-1.52
2022-12-11T03:23:05.303Z,-1.58
2022-12-11T03:25:43.672Z,-1.62
2022-12-11T03:28:19.419Z,-1.65
2022-12-11T03:30:51.324Z,-1.68
2022-12-11T03:33:35.629Z,-1.69
2022-12-11T03:36:12.525Z,-1.69
2022-12-11T03:39:01.773Z,-1.70
2022-12-11T03:41:32.995Z,-1.72
2022-12-11T03:44:01.323Z,-1.75
2022-12-11T03:46:36.815Z,-1.77
2022-12-11T03:49:13.078Z,-1.78
2022-12-11T03:51:42.296Z,-1.76
2022-12-11T03:54:11.464Z,-1.76
2022-12-11T03:56:43.132Z,-1.76
2022-12-11T03:59:10.877Z,-1.75
2022-12-11T04:01:38.862Z,-1.75
2022-12-11T04:04:06.422Z,-1.73
2022-12-11T04:06:34.023Z,-1.69
2022-12-11T04:09:01.548Z,-1.64
2022-12-11T04:11:34.779Z,-1.58
2022-12-11T04:14:29.942Z,-1.51
2022-12-11T04:16:59.432Z,-1.46
2022-12-11T04:19:43.472Z,-1.43
2022-12-11T04:22:32.453Z,-1.42
2022-12-11T04:25:05.306Z,-1.43
2022-12-11T04:27:48.974Z,-1.44
2022-12-11T04:30:23.057Z,-1.45
2022-12-11T04:32:51.741Z,-1.43
2022-12-11T04:35:20.328Z,-1.43
2022-12-11T04:37:48.747Z,-1.42
2022-12-11T04:40:18.629Z,-1.41
2022-12-11T04:42:46.479Z,-1.42
2022-12-11T04:45:14.463Z,-1.43
2022-12-11T04:47:42.326Z,-1.46
2022-12-11T04:50:14.303Z,-1.52
2022-12-11T04:52:42.804Z,-1.55
2022-12-11T04:55:11.716Z,-1.57
2022-12-11T04:57:39.707Z,-1.59
2022-12-11T05:00:10.361Z,-1.61
2022-12-11T05:02:41.299Z,-1.65
2022-12-11T05:05:11.182Z,-1.66
2022-12-11T05:07:39.000Z,-1.67
2022-12-11T05:10:07.545Z,-1.65
2022-12-11T05:12:35.090Z,-1.64
2022-12-11T05:15:02.710Z,-1.63
2022-12-11T05:17:30.220Z,-1.61
2022-12-11T05:19:57.685Z,-1.61
2022-12-11T05:22:25.229Z,-1.63
2022-12-11T05:24:52.727Z,-1.67
2022-12-11T05:27:20.966Z,-1.70
2022-12-11T05:29:48.486Z,-1.71
2022-12-11T05:32:16.073Z,-1.78
2022-12-11T05:34:43.839Z,-1.81
2022-12-11T05:37:11.384Z,-1.81
2022-12-11T05:39:39.253Z,-1.81
2022-12-11T05:42:06.758Z,-1.83
2022-12-11T05:44:34.602Z,-1.85
2022-12-11T05:47:02.109Z,-1.86
2022-12-11T05:49:31.125Z,-1.88
2022-12-11T05:51:58.912Z,-1.92
2022-12-11T05:54:26.385Z,-1.93
2022-12-11T05:56:53.900Z,-1.91
2022-12-11T05:59:21.572Z,-1.87
2022-12-11T06:01:49.224Z,-1.85
2022-12-11T06:04:16.869Z,-1.83
2022-12-11T06:06:44.380Z,-1.82
2022-12-11T06:09:15.484Z,-1.81
2022-12-11T06:11:43.322Z,-1.83
2022-12-11T06:14:11.661Z,-1.83
2022-12-11T06:16:39.350Z,-1.83
2022-12-11T06:19:07.127Z,-1.83
2022-12-11T06:21:34.734Z,-1.85
2022-12-11T06:24:03.813Z,-1.89
2022-12-11T06:26:31.990Z,-1.91
2022-12-11T06:28:59.658Z,-1.96
2022-12-11T06:31:27.887Z,-1.98
2022-12-11T06:33:55.765Z,-1.97
2022-12-11T06:36:24.866Z,-1.96
2022-12-11T06:38:55.301Z,-1.92
2022-12-11T06:41:22.850Z,-1.89
2022-12-11T06:43:50.826Z,-1.87
2022-12-11T06:46:19.912Z,-1.87
2022-12-11T06:48:50.545Z,-1.87
2022-12-11T06:51:20.798Z,-1.86
2022-12-11T06:53:53.363Z,-1.87
2022-12-11T06:56:21.553Z,-1.88
2022-12-11T06:58:49.748Z,-1.91
2022-12-11T07:01:26.204Z,-1.92
2022-12-11T07:03:58.767Z,-1.94
2022-12-11T07:06:28.416Z,-1.98
2022-12-11T07:08:56.825Z,-1.97
2022-12-11T07:11:24.610Z,-1.99
2022-12-11T07:13:52.165Z,-2.02
2022-12-11T07:16:19.771Z,-2.05
2022-12-11T07:18:50.043Z,-2.05
2022-12-11T07:21:19.395Z,-2.03
2022-12-11T07:23:47.853Z,-2.03
2022-12-11T07:26:17.993Z,-2.04
2022-12-11T07:28:45.934Z,-2.05
2022-12-11T07:31:21.500Z,-2.04
2022-12-11T07:33:57.077Z,-1.99
2022-12-11T07:36:25.354Z,-1.93
2022-12-11T07:38:53.811Z,-1.88
2022-12-11T07:41:21.968Z,-1.85
2022-12-11T07:43:49.598Z,-1.84
2022-12-11T07:46:20.245Z,-1.81
2022-12-11T07:48:48.841Z,-1.83
2022-12-11T07:51:27.606Z,-1.86
2022-12-11T07:54:01.356Z,-1.89
2022-12-11T07:56:30.218Z,-1.95
2022-12-11T07:59:02.236Z,-1.98
2022-12-11T08:01:31.847Z,-2.02
2022-12-11T08:03:59.459Z,-2.05
2022-12-11T08:06:30.025Z,-2.05
2022-12-11T08:08:59.850Z,-2.05
2022-12-11T08:11:28.495Z,-2.04
2022-12-11T08:13:56.385Z,-2.07
2022-12-11T08:16:23.939Z,-2.09
2022-12-11T08:18:51.875Z,-2.07
2022-12-11T08:21:22.720Z,-2.05
2022-12-11T08:23:51.776Z,-2.07
2022-12-11T08:26:23.252Z,-2.08
2022-12-11T08:28:51.027Z,-2.06
2022-12-11T08:31:19.993Z,-2.04
2022-12-11T08:33:48.558Z,-2.04
2022-12-11T08:36:18.902Z,-2.03
2022-12-11T08:38:47.128Z,-2.01
2022-12-11T08:41:15.767Z,-2.01
2022-12-11T08:43:44.618Z,-2.02
2022-12-11T08:46:13.536Z,-2.00
2022-12-11T08:48:42.739Z,-2.01
2022-12-11T08:51:15.790Z,-2.05
2022-12-11T08:53:44.276Z,-2.08
2022-12-11T08:56:15.076Z,-2.10
2022-12-11T08:58:43.772Z,-2.11
2022-12-11T09:01:17.971Z,-2.11
2022-12-11T09:03:45.541Z,-2.10
2022-12-11T09:06:16.664Z,-2.08
2022-12-11T09:08:51.674Z,-2.05
2022-12-11T09:11:29.113Z,-2.04
2022-12-11T09:13:58.934Z,-2.01
2022-12-11T09:16:30.158Z,-1.98
2022-12-11T09:18:59.091Z,-1.98
2022-12-11T09:21:29.236Z,-1.98
2022-12-11T09:23:59.894Z,-1.98
2022-12-11T09:26:29.999Z,-1.95
2022-12-11T09:28:58.435Z,-1.92
2022-12-11T09:31:29.214Z,-1.87
2022-12-11T09:33:59.496Z,-1.80
2022-12-11T09:36:27.911Z,-1.75
2022-12-11T09:38:56.124Z,-1.70
2022-12-11T09:41:23.603Z,-1.66
2022-12-11T09:44:14.390Z,-1.64
2022-12-11T09:46:42.589Z,-1.63
2022-12-11T09:49:42.525Z,-1.64
2022-12-11T09:52:26.688Z,-1.67
2022-12-11T09:55:14.922Z,-1.69
2022-12-11T09:57:56.114Z,-1.69
2022-12-11T10:00:32.139Z,-1.66
2022-12-11T10:03:17.766Z,-1.63
2022-12-11T10:05:57.337Z,-1.58
2022-12-11T10:08:33.440Z,-1.54
2022-12-11T10:11:40.256Z,-1.51
2022-12-11T10:14:26.875Z,-1.50
2022-12-11T10:17:02.079Z,-1.48
2022-12-11T10:19:31.992Z,-1.47
2022-12-11T10:22:01.438Z,-1.49
2022-12-11T10:27:33.091Z,-1.56
2022-12-11T10:30:34.501Z,-1.59
2022-12-11T10:33:39.285Z,-1.58
2022-12-11T10:36:09.132Z,-1.55
2022-12-11T10:38:45.278Z,-1.53
2022-12-11T10:41:17.358Z,-1.51
2022-12-11T10:43:48.399Z,-1.50
2022-12-11T10:46:19.281Z,-1.48
2022-12-11T10:48:55.889Z,-1.48
2022-12-11T10:51:40.464Z,-1.46
2022-12-11T10:54:24.802Z,-1.47
2022-12-11T10:56:53.956Z,-1.46
2022-12-11T10:59:29.135Z,-1.49
2022-12-11T11:01:58.040Z,-1.53
2022-12-11T11:04:44.738Z,-1.52
2022-12-11T11:07:18.087Z,-1.49
2022-12-11T11:09:46.999Z,-1.46
2022-12-11T11:12:27.570Z,-1.41
2022-12-11T11:15:04.056Z,-1.37
2022-12-11T11:17:35.468Z,-1.38
2022-12-11T11:20:14.480Z,-1.39
2022-12-11T11:22:47.428Z,-1.43
2022-12-11T11:25:21.756Z,-1.49
2022-12-11T11:28:19.469Z,-1.58
2022-12-11T11:31:11.656Z,-1.60
2022-12-11T11:33:50.969Z,-1.59
2022-12-11T11:36:22.883Z,-1.61
2022-12-11T11:39:07.373Z,-1.65
2022-12-11T11:41:49.387Z,-1.69
2022-12-11T11:44:25.371Z,-1.70
2022-12-11T11:46:59.547Z,-1.71
2022-12-11T11:49:59.035Z,-1.72
2022-12-11T11:52:55.935Z,-1.73
2022-12-11T11:55:37.760Z,-1.77
2022-12-11T11:58:15.417Z,-1.78
2022-12-11T12:00:43.584Z,-1.81
2022-12-11T12:03:15.363Z,-1.80
2022-12-11T12:05:57.580Z,-1.77
2022-12-11T12:09:04.054Z,-1.72
2022-12-11T12:11:47.639Z,-1.69
2022-12-11T12:14:54.727Z,-1.74
2022-12-11T12:17:39.037Z,-1.78
2022-12-11T12:20:28.764Z,-1.83
2022-12-11T12:23:02.645Z,-1.89
2022-12-11T12:25:44.745Z,-1.96
2022-12-11T12:28:45.134Z,-1.99
2022-12-11T12:31:37.322Z,-2.00
2022-12-11T12:34:05.167Z,-2.03
2022-12-11T12:37:04.984Z,-2.04
2022-12-11T12:39:35.681Z,-2.05
2022-12-11T12:42:25.532Z,-2.06
2022-12-11T12:45:16.491Z,-2.05
2022-12-11T12:47:53.061Z,-2.06
2022-12-11T12:50:26.696Z,-2.09
2022-12-11T12:52:56.801Z,-2.07
2022-12-11T12:55:29.017Z,-2.03
2022-12-11T12:58:08.318Z,-2.00
2022-12-11T13:00:42.295Z,-1.97
2022-12-11T13:03:16.231Z,-1.97
2022-12-11T13:05:55.415Z,-1.95
2022-12-11T13:08:28.912Z,-1.97
2022-12-11T13:11:07.185Z,-1.99
2022-12-11T13:13:41.031Z,-2.03
2022-12-11T13:16:25.179Z,-2.04
2022-12-11T13:18:53.657Z,-2.07
2022-12-11T13:21:40.085Z,-2.10
2022-12-11T13:24:28.938Z,-2.14
2022-12-11T13:26:56.920Z,-2.17
2022-12-11T13:29:41.812Z,-2.15
2022-12-11T13:32:09.494Z,-2.13
2022-12-11T13:34:43.930Z,-2.15
2022-12-11T13:37:32.959Z,-2.17
2022-12-11T13:40:08.931Z,-2.18
2022-12-11T13:42:47.700Z,-2.24
2022-12-11T13:45:23.656Z,-2.26
2022-12-11T13:47:51.459Z,-2.26
2022-12-11T13:50:25.109Z,-2.26
2022-12-11T13:52:58.177Z,-2.29
2022-12-11T13:55:34.830Z,-2.30
2022-12-11T13:58:02.660Z,-2.33
2022-12-11T14:00:33.442Z,-2.34
2022-12-11T14:03:07.475Z,-2.34
2022-12-11T14:05:35.540Z,-2.35
2022-12-11T14:08:10.315Z,-2.37
2022-12-11T14:10:39.891Z,-2.38
2022-12-11T14:13:20.567Z,-2.43
2022-12-11T14:15:48.314Z,-2.47
2022-12-11T14:18:24.774Z,-2.51
2022-12-11T14:20:58.239Z,-2.51
2022-12-11T14:23:29.835Z,-2.50
2022-12-11T14:26:03.526Z,-2.48
2022-12-11T14:28:38.181Z,-2.46
2022-12-11T14:31:06.776Z,-2.42
2022-12-11T14:33:43.733Z,-2.38
2022-12-11T14:36:11.736Z,-2.36
2022-12-11T14:38:55.636Z,-2.33
2022-12-11T14:41:29.642Z,-2.33
2022-12-11T14:44:00.536Z,-2.36
2022-12-11T14:46:38.580Z,-2.40
2022-12-11T14:49:17.729Z,-2.43
2022-12-11T14:51:46.594Z,-2.45
2022-12-11T14:54:43.255Z,-2.47
2022-12-11T14:57:20.329Z,-2.48
2022-12-11T14:59:50.698Z,-2.42
2022-12-11T15:02:26.310Z,-2.37
2022-12-11T15:05:03.202Z,-2.33
2022-12-11T15:07:30.952Z,-2.31
2022-12-11T15:09:58.479Z,-2.31
2022-12-11T15:12:26.270Z,-2.31
2022-12-11T15:14:57.211Z,-2.31
2022-12-11T15:17:26.157Z,-2.34
2022-12-11T15:20:07.397Z,-2.38
2022-12-11T15:22:35.650Z,-2.39
2022-12-11T15:25:04.119Z,-2.38
2022-12-11T15:27:39.557Z,-2.35
2022-12-11T15:30:26.885Z,-2.34
2022-12-11T15:33:10.598Z,-2.38
2022-12-11T15:35:40.536Z,-2.38
2022-12-11T15:38:30.853Z,-2.38
2022-12-11T15:40:58.477Z,-2.39
2022-12-11T15:43:27.804Z,-2.44
2022-12-11T15:45:55.498Z,-2.49
2022-12-11T15:48:23.232Z,-2.51
2022-12-11T15:50:50.834Z,-2.53
2022-12-11T15:53:18.362Z,-2.57
2022-12-11T15:55:46.471Z,-2.61
2022-12-11T15:58:18.496Z,-2.63
2022-12-11T16:00:46.808Z,-2.61
2022-12-11T16:03:16.235Z,-2.59
2022-12-11T16:05:44.838Z,-2.59
2022-12-11T16:08:18.723Z,-2.60
2022-12-11T16:10:47.443Z,-2.62
2022-12-11T16:13:15.348Z,-2.59
2022-12-11T16:15:44.946Z,-2.56
2022-12-11T16:18:21.696Z,-2.56
2022-12-11T16:20:51.182Z,-2.53
2022-12-11T16:23:18.991Z,-2.52
2022-12-11T16:25:47.236Z,-2.52
2022-12-11T16:28:18.030Z,-2.53
2022-12-11T16:30:45.689Z,-2.56
2022-12-11T16:33:14.343Z,-2.57
2022-12-11T16:35:42.842Z,-2.59
2022-12-11T16:38:11.720Z,-2.57
2022-12-11T16:40:39.321Z,-2.54
2022-12-11T16:43:06.930Z,-2.51
2022-12-11T16:45:34.546Z,-2.49
2022-12-11T16:48:05.855Z,-2.49
2022-12-11T16:50:33.351Z,-2.50
2022-12-11T16:53:00.920Z,-2.50
2022-12-11T16:55:28.422Z,-2.48
2022-12-11T16:57:55.975Z,-2.44
2022-12-11T17:00:23.852Z,-2.38
2022-12-11T17:02:51.985Z,-2.33
2022-12-11T17:05:19.972Z,-2.32
2022-12-11T17:07:47.516Z,-2.31
2022-12-11T17:10:15.087Z,-2.30
2022-12-11T17:12:42.558Z,-2.29
2022-12-11T17:15:10.655Z,-2.29
2022-12-11T17:17:38.472Z,-2.31
2022-12-11T17:20:06.803Z,-2.30
2022-12-11T17:22:35.938Z,-2.31
2022-12-11T17:25:03.900Z,-2.33
2022-12-11T17:27:31.776Z,-2.31
2022-12-11T17:29:59.370Z,-2.29
2022-12-11T17:32:26.982Z,-2.26
2022-12-11T17:34:54.738Z,-2.23
2022-12-11T17:37:22.346Z,-2.20
2022-12-11T17:39:50.077Z,-2.17
2022-12-11T17:42:17.810Z,-2.15
2022-12-11T17:44:45.539Z,-2.15
2022-12-11T17:47:13.296Z,-2.14
2022-12-11T17:49:41.410Z,-2.14
2022-12-11T17:52:09.152Z,-2.15
2022-12-11T17:54:39.268Z,-2.16
2022-12-11T17:57:06.967Z,-2.17
2022-12-11T17:59:34.640Z,-2.18
2022-12-11T18:02:02.435Z,-2.18
2022-12-11T18:04:30.069Z,-2.18
2022-12-11T18:06:57.709Z,-2.17
2022-12-11T18:09:25.327Z,-2.17
2022-12-11T18:11:53.072Z,-2.17
2022-12-11T18:14:20.702Z,-2.19
2022-12-11T18:16:48.680Z,-2.20
2022-12-11T18:19:16.648Z,-2.20
2022-12-11T18:21:45.805Z,-2.22
2022-12-11T18:24:13.337Z,-2.22
2022-12-11T18:26:42.998Z,-2.22
2022-12-11T18:29:10.989Z,-2.22
2022-12-11T18:31:42.554Z,-2.19
2022-12-11T18:34:11.311Z,-2.14
2022-12-11T18:36:40.756Z,-2.10
2022-12-11T18:39:08.743Z,-2.07
2022-12-11T18:41:36.366Z,-2.04
2022-12-11T18:44:09.541Z,-2.03
2022-12-11T18:46:39.392Z,-2.02
2022-12-11T18:49:07.540Z,-2.03
2022-12-11T18:51:35.933Z,-2.04
2022-12-11T18:54:03.997Z,-2.04
2022-12-11T18:56:31.777Z,-2.07
2022-12-11T18:58:59.376Z,-2.11
2022-12-11T19:01:29.008Z,-2.14
2022-12-11T19:04:04.227Z,-2.14
2022-12-11T19:06:35.530Z,-2.14
2022-12-11T19:09:05.136Z,-2.12
2022-12-11T19:11:35.087Z,-2.13
2022-12-11T19:14:05.272Z,-2.13
2022-12-11T19:16:36.796Z,-2.14
2022-12-11T19:19:09.881Z,-2.16
2022-12-11T19:21:38.490Z,-2.17
2022-12-11T19:24:08.901Z,-2.19
2022-12-11T19:26:37.074Z,-2.19
2022-12-11T19:29:05.203Z,-2.24
2022-12-11T19:31:33.819Z,-2.27
2022-12-11T19:34:02.867Z,-2.25
2022-12-11T19:36:31.043Z,-2.22
2022-12-11T19:39:01.884Z,-2.19
2022-12-11T19:41:30.995Z,-2.17
2022-12-11T19:43:59.557Z,-2.17
2022-12-11T19:46:28.781Z,-2.18
2022-12-11T19:48:58.053Z,-2.19
2022-12-11T19:51:29.636Z,-2.20
2022-12-11T19:53:57.315Z,-2.23
2022-12-11T19:56:25.030Z,-2.24
2022-12-11T19:58:52.688Z,-2.25
2022-12-11T20:01:28.388Z,-2.27
2022-12-11T20:03:59.599Z,-2.29
2022-12-11T20:06:29.468Z,-2.30
2022-12-11T20:08:57.607Z,-2.29
2022-12-11T20:11:26.230Z,-2.28
2022-12-11T20:13:55.578Z,-2.27
2022-12-11T20:16:39.567Z,-2.27
2022-12-11T20:19:11.067Z,-2.27
2022-12-11T20:21:38.672Z,-2.26
2022-12-11T20:24:06.483Z,-2.27
2022-12-11T20:26:36.475Z,-2.27
2022-12-11T20:29:07.355Z,-2.27
2022-12-11T20:31:36.885Z,-2.26
2022-12-11T20:34:05.009Z,-2.25
2022-12-11T20:36:33.115Z,-2.22
2022-12-11T20:39:00.874Z,-2.21
2022-12-11T20:41:29.387Z,-2.19
2022-12-11T20:43:57.082Z,-2.17
2022-12-11T20:46:26.328Z,-2.14
2022-12-11T20:48:55.886Z,-2.10
2022-12-11T20:51:26.295Z,-2.06
2022-12-11T20:53:58.734Z,-2.01
2022-12-11T20:56:29.300Z,-1.98
2022-12-11T20:58:58.443Z,-1.95
2022-12-11T21:01:28.199Z,-1.90
2022-12-11T21:03:56.393Z,-1.88
2022-12-11T21:06:25.648Z,-1.92
2022-12-11T21:08:53.333Z,-1.94
2022-12-11T21:11:21.584Z,-1.95
2022-12-11T21:13:49.490Z,-1.96
2022-12-11T21:16:17.550Z,-1.95
2022-12-11T21:18:46.529Z,-1.93
2022-12-11T21:21:14.765Z,-1.89
2022-12-11T21:23:42.362Z,-1.85
2022-12-11T21:26:10.429Z,-1.80
2022-12-11T21:28:38.076Z,-1.77
2022-12-11T21:31:08.888Z,-1.74
2022-12-11T21:33:36.543Z,-1.73
2022-12-11T21:36:06.169Z,-1.75
2022-12-11T21:38:33.761Z,-1.75
2022-12-11T21:41:09.844Z,-1.77
2022-12-11T21:43:42.757Z,-1.77
2022-12-11T21:46:27.664Z,-1.75
2022-12-11T21:48:55.394Z,-1.72
2022-12-11T21:51:35.737Z,-1.68
2022-12-11T21:54:06.878Z,-1.66
2022-12-11T21:56:34.525Z,-1.65
2022-12-11T21:59:02.227Z,-1.64
2022-12-11T22:01:40.856Z,-1.63
2022-12-11T22:04:10.567Z,-1.64
2022-12-11T22:06:41.915Z,-1.64
2022-12-11T22:09:12.325Z,-1.63
2022-12-11T22:11:41.799Z,-1.60
2022-12-11T22:14:13.280Z,-1.57
2022-12-11T22:16:41.782Z,-1.52
2022-12-11T22:19:09.628Z,-1.48
2022-12-11T22:21:37.953Z,-1.46
2022-12-11T22:24:05.630Z,-1.44
2022-12-11T22:26:33.193Z,-1.42
2022-12-11T22:29:00.717Z,-1.41
2022-12-11T22:31:28.251Z,-1.40
2022-12-11T22:33:56.338Z,-1.41
2022-12-11T22:36:26.813Z,-1.40
2022-12-11T22:38:55.305Z,-1.37
2022-12-11T22:41:29.548Z,-1.34
2022-12-11T22:43:58.381Z,-1.32
2022-12-11T22:46:28.876Z,-1.29
2022-12-11T22:48:58.116Z,-1.29
2022-12-11T22:51:25.636Z,-1.26
2022-12-11T22:53:53.115Z,-1.25
2022-12-11T22:56:21.069Z,-1.24
2022-12-11T22:58:48.609Z,-1.25
2022-12-11T23:01:20.174Z,-1.25
2022-12-11T23:03:47.830Z,-1.24
2022-12-11T23:06:18.284Z,-1.25
2022-12-11T23:08:46.148Z,-1.26
2022-12-11T23:11:15.105Z,-1.23
2022-12-11T23:13:43.140Z,-1.20
2022-12-11T23:16:11.819Z,-1.15
2022-12-11T23:18:40.295Z,-1.11
2022-12-11T23:21:09.866Z,-1.10
2022-12-11T23:23:37.468Z,-1.11
2022-12-11T23:26:06.833Z,-1.09
2022-12-11T23:28:34.370Z,-1.06
2022-12-11T23:31:02.069Z,-1.05
2022-12-11T23:33:29.631Z,-1.06
2022-12-11T23:35:58.186Z,-1.08
2022-12-11T23:38:25.902Z,-1.10
2022-12-11T23:40:53.747Z,-1.07
2022-12-11T23:43:22.174Z,-1.03
2022-12-11T23:45:49.984Z,-0.99
2022-12-11T23:48:18.469Z,-0.97
2022-12-11T23:50:46.273Z,-0.95
2022-12-11T23:53:13.822Z,-0.92
2022-12-11T23:55:43.707Z,-0.91
2022-12-11T23:58:11.937Z,-0.91
